createdAt,value
2022-09-11T00:00:26.919Z,20.42
2022-09-11T00:02:28.581Z,20.42
2022-09-11T00:04:30.233Z,20.38
2022-09-11T00:06:31.940Z,20.34
2022-09-11T00:08:33.947Z,20.33
2022-09-11T00:10:40.314Z,20.26
2022-09-11T00:12:41.937Z,20.28
2022-09-11T00:14:43.663Z,20.26
2022-09-11T00:16:47.175Z,20.21
2022-09-11T00:18:49.577Z,20.16
2022-09-11T00:20:54.016Z,20.14
2022-09-11T00:22:55.630Z,20.17
2022-09-11T00:24:58.887Z,20.13
2022-09-11T00:27:01.031Z,20.11
2022-09-11T00:29:04.198Z,20.12
2022-09-11T00:31:08.733Z,20.13
2022-09-11T00:33:14.294Z,20.13
2022-09-11T00:35:15.882Z,20.10
2022-09-11T00:37:17.534Z,20.10
2022-09-11T00:39:19.207Z,20.07
2022-09-11T00:41:24.291Z,20.07
2022-09-11T00:43:27.989Z,19.94
2022-09-11T00:45:29.620Z,19.90
2022-09-11T00:47:31.354Z,19.89
2022-09-11T00:49:41.111Z,19.91
2022-09-11T00:51:45.612Z,19.90
2022-09-11T00:53:47.442Z,19.93
2022-09-11T00:55:53.872Z,19.92
2022-09-11T00:58:01.419Z,19.93
2022-09-11T01:00:05.657Z,19.91
2022-09-11T01:02:09.185Z,19.87
2022-09-11T01:04:10.869Z,19.87
2022-09-11T01:06:13.504Z,19.81
2022-09-11T01:08:15.313Z,19.77
2022-09-11T01:10:17.599Z,19.76
2022-09-11T01:12:26.263Z,19.71
2022-09-11T01:15:02.644Z,19.67
2022-09-11T01:17:44.299Z,19.63
2022-09-11T01:20:19.784Z,19.68
2022-09-11T01:22:46.030Z,19.68
2022-09-11T01:25:24.034Z,19.55
2022-09-11T01:27:31.326Z,19.46
2022-09-11T01:29:43.018Z,19.40
2022-09-11T01:31:57.230Z,19.30
2022-09-11T01:34:01.372Z,19.32
2022-09-11T01:36:14.042Z,19.30
2022-09-11T01:38:21.515Z,19.37
2022-09-11T01:40:37.235Z,19.35
2022-09-11T01:42:41.302Z,19.37
2022-09-11T01:45:01.739Z,19.37
2022-09-11T01:47:05.289Z,19.33
2022-09-11T01:49:15.472Z,19.33
2022-09-11T01:51:24.497Z,19.31
2022-09-11T01:53:30.970Z,19.33
2022-09-11T01:55:41.399Z,19.38
2022-09-11T01:57:56.331Z,19.41
2022-09-11T02:00:01.598Z,19.39
2022-09-11T02:02:09.585Z,19.33
2022-09-11T02:04:18.181Z,19.29
2022-09-11T02:06:24.708Z,19.27
2022-09-11T02:08:35.552Z,19.29
2022-09-11T02:10:40.942Z,19.39
2022-09-11T02:12:53.886Z,19.30
2022-09-11T02:14:55.955Z,18.99
2022-09-11T02:17:06.853Z,18.78
2022-09-11T02:19:13.079Z,18.34
2022-09-11T02:21:14.707Z,18.15
2022-09-11T02:23:16.876Z,17.99
2022-09-11T02:25:18.500Z,18.03
2022-09-11T02:27:27.519Z,18.05
2022-09-11T02:29:29.230Z,18.08
2022-09-11T02:31:31.287Z,18.10
2022-09-11T02:33:36.118Z,18.12
2022-09-11T02:35:45.934Z,18.12
2022-09-11T02:37:47.746Z,18.07
2022-09-11T02:40:27.191Z,18.06
2022-09-11T02:43:19.730Z,17.79
2022-09-11T02:45:44.791Z,17.65
2022-09-11T02:48:08.167Z,17.35
2022-09-11T02:50:34.408Z,17.33
2022-09-11T02:53:26.960Z,17.26
2022-09-11T02:55:51.339Z,17.23
2022-09-11T02:58:23.373Z,17.18
2022-09-11T03:00:25.155Z,17.15
2022-09-11T03:02:28.100Z,17.22
2022-09-11T03:04:29.993Z,17.15
2022-09-11T03:06:31.572Z,17.11
2022-09-11T03:08:33.211Z,17.10
2022-09-11T03:10:34.868Z,17.06
2022-09-11T03:12:36.631Z,17.23
2022-09-11T03:14:38.310Z,17.30
2022-09-11T03:16:41.299Z,17.24
2022-09-11T03:18:42.926Z,17.39
2022-09-11T03:20:49.143Z,17.58
2022-09-11T03:22:50.828Z,17.77
2022-09-11T03:24:52.422Z,17.90
2022-09-11T03:26:54.059Z,18.00
2022-09-11T03:28:55.685Z,18.08
2022-09-11T03:30:58.225Z,18.16
2022-09-11T03:33:01.063Z,18.28
2022-09-11T03:35:02.765Z,18.32
2022-09-11T03:37:04.484Z,18.33
2022-09-11T03:39:06.361Z,18.34
2022-09-11T03:41:09.318Z,18.41
2022-09-11T03:43:12.485Z,18.45
2022-09-11T03:45:14.976Z,18.44
2022-09-11T03:47:16.748Z,18.26
2022-09-11T03:49:18.378Z,18.25
2022-09-11T03:51:21.197Z,18.27
2022-09-11T03:53:22.895Z,18.31
2022-09-11T03:55:24.501Z,18.37
2022-09-11T03:57:26.492Z,18.41
2022-09-11T03:59:28.154Z,18.48
2022-09-11T04:01:29.911Z,18.50
2022-09-11T04:03:31.544Z,18.49
2022-09-11T04:05:33.128Z,18.48
2022-09-11T04:07:34.872Z,18.49
2022-09-11T04:09:36.482Z,18.52
2022-09-11T04:11:40.063Z,18.55
2022-09-11T04:13:43.876Z,18.54
2022-09-11T04:15:45.607Z,18.57
2022-09-11T04:17:47.300Z,18.58
2022-09-11T04:19:48.873Z,18.57
2022-09-11T04:21:50.514Z,18.55
2022-09-11T04:23:54.454Z,18.49
2022-09-11T04:25:56.396Z,18.38
2022-09-11T04:27:57.957Z,18.37
2022-09-11T04:29:59.627Z,18.33
2022-09-11T04:32:01.461Z,18.39
2022-09-11T04:34:03.160Z,18.42
2022-09-11T04:36:10.389Z,18.42
2022-09-11T04:38:12.039Z,18.50
2022-09-11T04:40:13.663Z,18.52
2022-09-11T04:42:15.397Z,18.57
2022-09-11T04:44:17.066Z,18.63
2022-09-11T04:46:18.760Z,18.67
2022-09-11T04:48:20.414Z,18.56
2022-09-11T04:50:22.023Z,18.58
2022-09-11T04:52:23.764Z,18.49
2022-09-11T04:54:25.434Z,18.54
2022-09-11T04:56:29.406Z,18.56
2022-09-11T04:58:31.492Z,18.68
2022-09-11T05:00:33.838Z,18.69
2022-09-11T05:02:36.258Z,18.68
2022-09-11T05:04:37.904Z,18.73
2022-09-11T05:06:40.136Z,18.76
2022-09-11T05:08:45.812Z,18.81
2022-09-11T05:10:47.540Z,18.86
2022-09-11T05:12:49.777Z,18.91
2022-09-11T05:14:51.437Z,18.82
2022-09-11T05:16:53.047Z,18.79
2022-09-11T05:18:55.575Z,18.72
2022-09-11T05:21:05.300Z,18.53
2022-09-11T05:23:07.388Z,18.52
2022-09-11T05:25:09.676Z,18.48
2022-09-11T05:27:11.678Z,18.56
2022-09-11T05:29:15.374Z,18.65
2022-09-11T05:31:17.365Z,18.74
2022-09-11T05:33:19.319Z,18.91
2022-09-11T05:35:25.737Z,18.95
2022-09-11T05:37:29.097Z,18.98
2022-09-11T05:39:30.770Z,19.14
2022-09-11T05:41:32.440Z,19.22
2022-09-11T05:43:34.809Z,19.22
2022-09-11T05:45:37.098Z,19.17
2022-09-11T05:47:39.180Z,19.03
2022-09-11T05:49:40.859Z,19.03
2022-09-11T05:51:42.526Z,18.53
2022-09-11T05:53:44.490Z,18.28
2022-09-11T05:55:47.313Z,17.91
2022-09-11T05:57:48.877Z,17.81
2022-09-11T05:59:50.456Z,17.92
2022-09-11T06:01:52.110Z,17.86
2022-09-11T06:03:54.445Z,17.63
2022-09-11T06:05:59.566Z,17.67
2022-09-11T06:08:01.792Z,17.66
2022-09-11T06:10:03.679Z,17.79
2022-09-11T06:12:05.476Z,17.95
2022-09-11T06:14:07.173Z,17.71
2022-09-11T06:16:18.034Z,17.63
2022-09-11T06:18:20.379Z,17.79
2022-09-11T06:20:22.362Z,17.98
2022-09-11T06:22:23.997Z,18.12
2022-09-11T06:24:25.820Z,18.31
2022-09-11T06:26:27.657Z,18.36
2022-09-11T06:28:29.369Z,18.15
2022-09-11T06:30:31.023Z,18.41
2022-09-11T06:32:32.680Z,18.38
2022-09-11T06:34:34.305Z,18.65
2022-09-11T06:36:36.089Z,18.92
2022-09-11T06:38:57.606Z,18.83
2022-09-11T06:41:03.058Z,18.75
2022-09-11T06:43:05.124Z,18.73
2022-09-11T06:45:08.665Z,18.78
2022-09-11T06:47:10.262Z,18.89
2022-09-11T06:49:11.891Z,19.16
2022-09-11T06:51:15.802Z,19.36
2022-09-11T06:53:17.469Z,19.71
2022-09-11T06:55:19.194Z,19.83
2022-09-11T06:57:20.841Z,20.02
2022-09-11T06:59:23.949Z,19.80
2022-09-11T07:01:26.270Z,19.93
2022-09-11T07:03:28.060Z,19.99
2022-09-11T07:05:29.802Z,20.11
2022-09-11T07:07:31.366Z,20.18
2022-09-11T07:09:32.986Z,20.24
2022-09-11T07:11:35.294Z,20.44
2022-09-11T07:13:38.222Z,20.53
2022-09-11T07:15:39.934Z,20.77
2022-09-11T07:17:41.587Z,21.05
2022-09-11T07:19:43.366Z,21.18
2022-09-11T07:21:45.063Z,21.31
2022-09-11T07:23:49.607Z,21.43
2022-09-11T07:25:51.194Z,20.97
2022-09-11T07:27:53.090Z,20.79
2022-09-11T07:29:54.837Z,20.52
2022-09-11T07:31:57.930Z,20.22
2022-09-11T07:34:00.351Z,20.48
2022-09-11T07:36:07.229Z,20.81
2022-09-11T07:38:08.838Z,21.15
2022-09-11T07:40:10.879Z,21.29
2022-09-11T07:42:12.543Z,21.33
2022-09-11T07:44:15.363Z,21.54
2022-09-11T07:46:17.548Z,21.27
2022-09-11T07:48:19.209Z,21.25
2022-09-11T07:50:20.803Z,21.31
2022-09-11T07:52:22.451Z,21.28
2022-09-11T07:54:24.075Z,21.52
2022-09-11T07:56:26.946Z,21.78
2022-09-11T07:58:32.218Z,21.96
2022-09-11T08:00:36.956Z,21.85
2022-09-11T08:02:38.882Z,21.16
2022-09-11T08:04:40.808Z,20.96
2022-09-11T08:06:42.669Z,20.98
2022-09-11T08:08:44.636Z,21.09
2022-09-11T08:10:46.388Z,20.97
2022-09-11T08:12:47.991Z,20.72
2022-09-11T08:14:49.991Z,20.53
2022-09-11T08:16:53.557Z,20.72
2022-09-11T08:18:55.047Z,20.84
2022-09-11T08:21:12.764Z,20.75
2022-09-11T08:23:18.111Z,21.18
2022-09-11T08:25:19.712Z,21.37
2022-09-11T08:27:21.332Z,21.61
2022-09-11T08:29:23.142Z,21.88
2022-09-11T08:31:26.940Z,21.94
2022-09-11T08:33:29.786Z,21.98
2022-09-11T08:35:31.606Z,21.71
2022-09-11T08:37:33.169Z,21.93
2022-09-11T08:39:34.985Z,22.06
2022-09-11T08:41:47.501Z,22.17
2022-09-11T08:43:59.316Z,22.45
2022-09-11T08:46:06.649Z,22.50
2022-09-11T08:48:11.303Z,22.43
2022-09-11T08:50:33.095Z,22.73
2022-09-11T08:52:36.490Z,22.93
2022-09-11T08:54:40.619Z,22.87
2022-09-11T08:56:44.083Z,23.01
2022-09-11T08:58:52.054Z,23.22
2022-09-11T09:01:12.437Z,23.30
2022-09-11T09:03:51.467Z,23.36
2022-09-11T09:06:09.428Z,23.36
2022-09-11T09:08:29.733Z,23.56
2022-09-11T09:10:51.060Z,23.76
2022-09-11T09:13:02.483Z,23.34
2022-09-11T09:15:25.161Z,22.83
2022-09-11T09:18:02.431Z,22.82
2022-09-11T09:20:09.664Z,22.86
2022-09-11T09:22:14.483Z,22.74
2022-09-11T09:24:22.028Z,22.40
2022-09-11T09:26:30.057Z,21.99
2022-09-11T09:28:39.652Z,22.08
2022-09-11T09:30:50.884Z,22.41
2022-09-11T09:33:11.393Z,22.33
2022-09-11T09:35:29.478Z,22.28
2022-09-11T09:37:31.400Z,22.21
2022-09-11T09:39:36.181Z,22.46
2022-09-11T09:41:56.879Z,22.47
2022-09-11T09:44:08.636Z,22.92
2022-09-11T09:46:41.713Z,23.39
2022-09-11T09:48:44.054Z,23.39
2022-09-11T09:50:45.878Z,23.28
2022-09-11T09:52:49.173Z,23.44
2022-09-11T09:54:57.456Z,23.55
2022-09-11T09:57:05.193Z,23.56
2022-09-11T09:59:19.434Z,23.69
2022-09-11T10:01:39.985Z,24.02
2022-09-11T10:03:41.694Z,24.14
2022-09-11T10:05:44.460Z,24.39
2022-09-11T10:07:51.050Z,24.58
2022-09-11T10:09:55.209Z,24.52
2022-09-11T10:12:02.921Z,24.47
2022-09-11T10:14:06.969Z,24.71
2022-09-11T10:16:26.050Z,24.76
2022-09-11T10:18:33.631Z,24.69
2022-09-11T10:20:36.233Z,24.36
2022-09-11T10:22:38.098Z,24.48
2022-09-11T10:24:42.807Z,24.52
2022-09-11T10:26:47.831Z,24.67
2022-09-11T10:28:49.788Z,24.74
2022-09-11T10:31:00.352Z,25.09
2022-09-11T10:33:06.936Z,25.26
2022-09-11T10:35:09.721Z,25.23
2022-09-11T10:37:14.277Z,25.20
2022-09-11T10:39:18.873Z,25.19
2022-09-11T10:41:22.763Z,24.96
2022-09-11T10:43:31.840Z,24.88
2022-09-11T10:45:33.871Z,25.00
2022-09-11T10:47:36.077Z,24.80
2022-09-11T10:49:37.773Z,24.61
2022-09-11T10:51:45.427Z,25.01
2022-09-11T10:53:59.639Z,24.71
2022-09-11T10:56:06.000Z,23.53
2022-09-11T10:58:17.519Z,23.42
2022-09-11T11:00:23.925Z,23.41
2022-09-11T11:02:31.793Z,23.56
2022-09-11T11:04:33.593Z,23.36
2022-09-11T11:07:04.681Z,23.49
2022-09-11T11:09:30.791Z,23.27
2022-09-11T11:11:41.840Z,23.56
2022-09-11T11:14:05.305Z,23.93
2022-09-11T11:16:31.180Z,24.28
2022-09-11T11:18:59.046Z,24.48
2022-09-11T11:21:07.825Z,24.15
2022-09-11T11:23:22.377Z,24.36
2022-09-11T11:25:30.769Z,24.38
2022-09-11T11:27:36.657Z,24.43
2022-09-11T11:29:55.039Z,23.90
2022-09-11T11:31:56.598Z,23.40
2022-09-11T11:34:12.948Z,23.55
2022-09-11T11:36:22.868Z,23.84
2022-09-11T11:38:29.220Z,23.53
2022-09-11T11:40:47.265Z,23.73
2022-09-11T11:42:56.249Z,24.07
2022-09-11T11:45:04.058Z,24.18
2022-09-11T11:47:10.899Z,24.22
2022-09-11T11:49:31.463Z,24.51
2022-09-11T11:51:47.545Z,24.71
2022-09-11T11:54:00.061Z,24.46
2022-09-11T11:56:37.854Z,24.52
2022-09-11T11:58:47.964Z,24.75
2022-09-11T12:00:56.224Z,24.55
2022-09-11T12:03:10.125Z,24.38
2022-09-11T12:05:17.356Z,24.66
2022-09-11T12:07:22.252Z,24.86
2022-09-11T12:09:23.888Z,25.18
2022-09-11T12:11:32.601Z,25.31
2022-09-11T12:13:42.375Z,25.28
2022-09-11T12:16:10.608Z,25.11
2022-09-11T12:18:15.787Z,25.05
2022-09-11T12:20:36.419Z,24.71
2022-09-11T12:22:39.353Z,24.21
2022-09-11T12:24:52.418Z,24.50
2022-09-11T12:27:35.602Z,24.46
2022-09-11T12:29:55.639Z,24.30
2022-09-11T12:32:00.330Z,24.34
2022-09-11T12:34:01.966Z,24.33
2022-09-11T12:36:05.894Z,24.50
2022-09-11T12:38:08.940Z,24.78
2022-09-11T12:40:22.441Z,24.80
2022-09-11T12:42:24.040Z,24.87
2022-09-11T12:44:47.180Z,24.94
2022-09-11T12:46:48.697Z,25.25
2022-09-11T12:49:17.822Z,25.53
2022-09-11T12:51:21.458Z,25.76
2022-09-11T12:53:27.131Z,25.59
2022-09-11T12:55:41.633Z,25.16
2022-09-11T12:57:43.275Z,24.60
2022-09-11T12:59:46.666Z,24.34
2022-09-11T13:01:48.279Z,24.52
2022-09-11T13:04:10.925Z,24.76
2022-09-11T13:06:13.746Z,24.54
2022-09-11T13:08:18.633Z,24.16
2022-09-11T13:10:28.836Z,24.32
2022-09-11T13:12:30.629Z,24.44
2022-09-11T13:14:32.270Z,24.48
2022-09-11T13:16:37.169Z,24.64
2022-09-11T13:18:43.564Z,24.58
2022-09-11T13:20:56.441Z,24.15
2022-09-11T13:23:15.325Z,24.25
2022-09-11T13:25:19.723Z,24.25
2022-09-11T13:27:30.125Z,24.43
2022-09-11T13:29:35.109Z,24.57
2022-09-11T13:31:38.201Z,24.67
2022-09-11T13:33:41.254Z,24.68
2022-09-11T13:35:45.114Z,24.30
2022-09-11T13:38:02.835Z,23.89
2022-09-11T13:40:06.239Z,23.89
2022-09-11T13:42:08.624Z,23.92
2022-09-11T13:44:23.184Z,23.93
2022-09-11T13:46:27.953Z,24.27
2022-09-11T13:48:29.612Z,24.42
2022-09-11T13:50:31.363Z,24.43
2022-09-11T13:52:34.266Z,24.62
2022-09-11T13:54:46.871Z,24.19
2022-09-11T13:56:57.566Z,24.45
2022-09-11T13:59:02.653Z,24.58
2022-09-11T14:01:11.850Z,24.79
2022-09-11T14:03:20.489Z,24.46
2022-09-11T14:05:26.067Z,24.33
2022-09-11T14:07:27.721Z,24.30
2022-09-11T14:09:29.361Z,24.08
2022-09-11T14:11:32.340Z,24.30
2022-09-11T14:13:53.555Z,24.63
2022-09-11T14:16:04.318Z,24.45
2022-09-11T14:18:12.341Z,24.26
2022-09-11T14:20:17.288Z,24.47
2022-09-11T14:22:32.395Z,24.18
2022-09-11T14:24:36.359Z,24.02
2022-09-11T14:26:41.521Z,23.77
2022-09-11T14:29:09.333Z,23.81
2022-09-11T14:31:13.975Z,23.90
2022-09-11T14:33:21.867Z,24.09
2022-09-11T14:35:25.257Z,24.12
2022-09-11T14:37:29.250Z,24.23
2022-09-11T14:40:03.131Z,24.31
2022-09-11T14:42:09.159Z,24.24
2022-09-11T14:44:13.957Z,24.11
2022-09-11T14:46:16.201Z,24.07
2022-09-11T14:48:18.815Z,23.87
2022-09-11T14:50:21.283Z,23.76
2022-09-11T14:52:24.965Z,23.70
2022-09-11T14:54:31.897Z,23.62
2022-09-11T14:56:33.517Z,23.61
2022-09-11T14:58:35.269Z,23.65
2022-09-11T15:00:37.023Z,23.66
2022-09-11T15:02:39.092Z,23.74
2022-09-11T15:04:40.785Z,23.79
2022-09-11T15:06:42.351Z,23.73
2022-09-11T15:08:44.925Z,23.71
2022-09-11T15:10:48.747Z,23.55
2022-09-11T15:12:50.697Z,23.43
2022-09-11T15:14:57.617Z,23.44
2022-09-11T15:17:01.901Z,23.56
2022-09-11T15:19:03.657Z,23.57
2022-09-11T15:21:05.364Z,23.61
2022-09-11T15:23:06.952Z,23.58
2022-09-11T15:25:08.770Z,23.61
2022-09-11T15:27:10.436Z,23.56
2022-09-11T15:29:12.125Z,23.51
2022-09-11T15:31:15.945Z,23.50
2022-09-11T15:33:17.530Z,23.40
2022-09-11T15:35:19.381Z,23.44
2022-09-11T15:37:21.373Z,23.40
2022-09-11T15:39:24.432Z,23.27
2022-09-11T15:41:28.059Z,23.26
2022-09-11T15:43:35.097Z,23.16
2022-09-11T15:45:42.396Z,22.87
2022-09-11T15:47:44.520Z,22.80
2022-09-11T15:49:47.966Z,22.82
2022-09-11T15:51:50.014Z,22.81
2022-09-11T15:53:52.430Z,22.65
2022-09-11T15:56:07.460Z,22.41
2022-09-11T15:58:09.442Z,22.51
2022-09-11T16:00:12.403Z,22.60
2022-09-11T16:02:14.308Z,22.59
2022-09-11T16:04:20.203Z,22.59
2022-09-11T16:06:23.635Z,22.55
2022-09-11T16:08:25.450Z,22.59
2022-09-11T16:10:27.930Z,22.56
2022-09-11T16:12:29.553Z,22.32
2022-09-11T16:14:33.332Z,21.78
2022-09-11T16:16:35.312Z,21.89
2022-09-11T16:18:38.593Z,21.94
2022-09-11T16:20:41.671Z,22.02
2022-09-11T16:22:44.198Z,22.02
2022-09-11T16:24:46.062Z,22.03
2022-09-11T16:26:47.706Z,21.96
2022-09-11T16:28:49.359Z,21.92
2022-09-11T16:30:53.994Z,21.89
2022-09-11T16:32:55.572Z,21.85
2022-09-11T16:34:57.775Z,21.69
2022-09-11T16:37:00.411Z,21.54
2022-09-11T16:39:02.199Z,21.43
2022-09-11T16:41:09.395Z,21.34
2022-09-11T16:43:10.980Z,21.37
2022-09-11T16:45:31.032Z,21.35
2022-09-11T16:47:33.411Z,21.33
2022-09-11T16:49:50.490Z,21.01
2022-09-11T16:51:56.645Z,20.78
2022-09-11T16:53:58.477Z,20.61
2022-09-11T16:56:01.483Z,20.31
2022-09-11T16:58:03.559Z,20.41
2022-09-11T17:00:07.920Z,20.48
2022-09-11T17:02:10.141Z,20.44
2022-09-11T17:04:12.010Z,20.30
2022-09-11T17:06:15.004Z,20.28
2022-09-11T17:08:17.612Z,20.34
2022-09-11T17:10:19.271Z,20.30
2022-09-11T17:12:22.387Z,20.13
2022-09-11T17:14:24.180Z,20.11
2022-09-11T17:16:28.356Z,19.98
2022-09-11T17:18:30.100Z,20.00
2022-09-11T17:20:31.722Z,19.87
2022-09-11T17:22:33.394Z,19.83
2022-09-11T17:24:35.270Z,19.82
2022-09-11T17:26:36.862Z,19.90
2022-09-11T17:28:39.590Z,19.98
2022-09-11T17:30:41.390Z,20.01
2022-09-11T17:32:44.009Z,19.91
2022-09-11T17:34:47.020Z,19.90
2022-09-11T17:36:49.417Z,19.86
2022-09-11T17:38:52.703Z,19.90
2022-09-11T17:40:59.057Z,19.97
2022-09-11T17:43:01.222Z,19.98
2022-09-11T17:45:03.274Z,19.88
2022-09-11T17:47:05.039Z,19.94
2022-09-11T17:49:07.438Z,19.98
2022-09-11T17:51:11.845Z,19.91
2022-09-11T17:53:14.330Z,19.91
2022-09-11T17:55:16.250Z,19.91
2022-09-11T17:57:17.843Z,19.93
2022-09-11T17:59:20.540Z,19.81
2022-09-11T18:01:23.391Z,19.79
2022-09-11T18:03:25.301Z,19.77
2022-09-11T18:05:28.974Z,19.69
2022-09-11T18:07:30.450Z,19.60
2022-09-11T18:09:32.328Z,19.63
2022-09-11T18:11:34.299Z,19.70
2022-09-11T18:13:36.400Z,19.72
2022-09-11T18:15:38.292Z,19.67
2022-09-11T18:17:40.486Z,19.64
2022-09-11T18:19:42.791Z,19.62
2022-09-11T18:21:49.399Z,19.63
2022-09-11T18:23:52.720Z,19.47
2022-09-11T18:25:55.042Z,19.47
2022-09-11T18:27:57.185Z,19.41
2022-09-11T18:30:00.002Z,19.33
2022-09-11T18:32:03.832Z,19.33
2022-09-11T18:34:07.052Z,19.42
2022-09-11T18:36:10.863Z,19.46
2022-09-11T18:38:13.499Z,19.48
2022-09-11T18:40:15.969Z,19.49
2022-09-11T18:42:18.852Z,19.37
2022-09-11T18:44:23.474Z,19.33
2022-09-11T18:46:27.502Z,19.33
2022-09-11T18:48:29.841Z,19.33
2022-09-11T18:50:32.045Z,19.40
2022-09-11T18:52:34.407Z,19.45
2022-09-11T18:54:37.581Z,19.49
2022-09-11T18:56:40.708Z,19.54
2022-09-11T18:58:43.122Z,19.59
2022-09-11T19:00:45.843Z,19.61
2022-09-11T19:02:50.461Z,19.63
2022-09-11T19:04:53.025Z,19.63
2022-09-11T19:06:55.588Z,19.66
2022-09-11T19:09:00.106Z,19.59
2022-09-11T19:11:07.885Z,19.59
2022-09-11T19:13:10.953Z,19.61
2022-09-11T19:15:13.282Z,19.67
2022-09-11T19:17:15.494Z,19.71
2022-09-11T19:19:18.781Z,19.61
2022-09-11T19:21:23.294Z,19.62
2022-09-11T19:23:25.879Z,19.66
2022-09-11T19:25:30.687Z,19.63
2022-09-11T19:27:33.428Z,19.60
2022-09-11T19:29:36.015Z,19.54
2022-09-11T19:31:39.711Z,19.54
2022-09-11T19:33:42.646Z,19.51
2022-09-11T19:35:44.818Z,19.37
2022-09-11T19:37:47.895Z,19.26
2022-09-11T19:39:52.233Z,19.16
2022-09-11T19:41:54.402Z,19.15
2022-09-11T19:44:00.384Z,19.12
2022-09-11T19:46:04.243Z,19.02
2022-09-11T19:48:06.053Z,19.04
2022-09-11T19:50:09.255Z,18.97
2022-09-11T19:52:12.068Z,18.89
2022-09-11T19:54:14.714Z,18.78
2022-09-11T19:56:17.670Z,18.78
2022-09-11T19:58:23.799Z,18.80
2022-09-11T20:00:25.982Z,18.88
2022-09-11T20:02:27.910Z,18.81
2022-09-11T20:04:29.879Z,18.85
2022-09-11T20:06:33.121Z,18.82
2022-09-11T20:08:36.277Z,18.80
2022-09-11T20:10:40.749Z,18.87
2022-09-11T20:12:42.600Z,18.85
2022-09-11T20:14:44.221Z,18.87
2022-09-11T20:16:45.894Z,18.68
2022-09-11T20:18:47.550Z,18.57
2022-09-11T20:20:49.185Z,18.45
2022-09-11T20:22:50.794Z,18.15
2022-09-11T20:24:52.409Z,17.73
2022-09-11T20:26:54.679Z,17.63
2022-09-11T20:29:12.245Z,17.43
2022-09-11T20:31:22.733Z,17.39
2022-09-11T20:33:24.412Z,17.51
2022-09-11T20:35:26.332Z,17.64
2022-09-11T20:37:28.159Z,17.67
2022-09-11T20:39:29.789Z,17.75
2022-09-11T20:41:32.331Z,17.76
2022-09-11T20:43:34.849Z,17.73
2022-09-11T20:45:36.436Z,17.78
2022-09-11T20:47:38.027Z,17.73
2022-09-11T20:49:39.950Z,17.71
2022-09-11T20:51:41.782Z,17.77
2022-09-11T20:53:45.720Z,17.81
2022-09-11T20:55:48.148Z,17.77
2022-09-11T20:57:49.744Z,17.74
2022-09-11T20:59:51.373Z,17.69
2022-09-11T21:01:53.343Z,17.71
2022-09-11T21:03:56.564Z,17.75
2022-09-11T21:06:04.085Z,17.79
2022-09-11T21:08:05.723Z,17.80
2022-09-11T21:10:08.025Z,17.84
2022-09-11T21:12:09.637Z,17.88
2022-09-11T21:14:15.512Z,17.86
2022-09-11T21:16:17.704Z,17.88
2022-09-11T21:18:19.305Z,17.88
2022-09-11T21:20:21.129Z,17.93
2022-09-11T21:22:22.877Z,17.90
2022-09-11T21:24:24.481Z,17.96
2022-09-11T21:26:28.623Z,18.00
2022-09-11T21:28:30.972Z,17.98
2022-09-11T21:30:32.596Z,17.85
2022-09-11T21:32:34.300Z,17.86
2022-09-11T21:34:35.836Z,17.83
2022-09-11T21:36:37.493Z,17.86
2022-09-11T21:38:39.454Z,17.77
2022-09-11T21:40:41.041Z,17.76
2022-09-11T21:42:42.614Z,17.80
2022-09-11T21:44:44.354Z,17.79
2022-09-11T21:46:46.280Z,17.85
2022-09-11T21:48:47.988Z,17.91
2022-09-11T21:50:49.768Z,17.96
2022-09-11T21:52:52.040Z,18.04
2022-09-11T21:54:54.803Z,18.05
2022-09-11T21:56:56.424Z,18.09
2022-09-11T21:58:58.416Z,18.05
2022-09-11T22:01:08.721Z,18.06
2022-09-11T22:03:14.264Z,18.06
2022-09-11T22:05:15.968Z,17.97
2022-09-11T22:07:17.921Z,17.97
2022-09-11T22:09:20.828Z,17.96
2022-09-11T22:11:23.113Z,17.99
2022-09-11T22:13:24.730Z,17.93
2022-09-11T22:15:26.348Z,17.98
2022-09-11T22:17:28.794Z,17.98
2022-09-11T22:19:30.383Z,17.96
2022-09-11T22:21:32.018Z,17.96
2022-09-11T22:23:34.135Z,18.01
2022-09-11T22:25:36.921Z,18.04
2022-09-11T22:27:38.671Z,18.10
2022-09-11T22:29:44.009Z,18.11
2022-09-11T22:31:48.504Z,18.08
2022-09-11T22:33:50.277Z,18.08
2022-09-11T22:35:51.998Z,18.03
2022-09-11T22:37:53.573Z,17.93
2022-09-11T22:39:55.292Z,17.89
2022-09-11T22:41:57.063Z,17.80
2022-09-11T22:43:58.685Z,17.77
2022-09-11T22:46:00.439Z,17.65
2022-09-11T22:48:02.850Z,17.56
2022-09-11T22:50:04.825Z,17.61
2022-09-11T22:52:08.410Z,17.59
2022-09-11T22:54:13.823Z,17.65
2022-09-11T22:56:15.593Z,17.61
2022-09-11T22:58:17.415Z,17.58
2022-09-11T23:00:19.861Z,17.58
2022-09-11T23:02:21.714Z,17.57
2022-09-11T23:04:23.377Z,17.53
2022-09-11T23:06:43.481Z,17.48
2022-09-11T23:08:48.427Z,17.51
2022-09-11T23:10:50.257Z,17.51
2022-09-11T23:12:52.791Z,17.50
2022-09-11T23:14:54.558Z,17.52
2022-09-11T23:16:56.200Z,17.43
2022-09-11T23:19:00.415Z,17.38
2022-09-11T23:21:02.031Z,17.34
2022-09-11T23:23:04.005Z,17.31
2022-09-11T23:25:06.523Z,17.30
2022-09-11T23:27:08.200Z,17.25
2022-09-11T23:29:10.558Z,17.25
2022-09-11T23:31:20.964Z,17.22
2022-09-11T23:33:22.598Z,17.18
2022-09-11T23:35:24.212Z,17.19
2022-09-11T23:37:25.845Z,17.19
2022-09-11T23:39:27.474Z,17.14
2022-09-11T23:41:29.410Z,17.12
2022-09-11T23:43:31.125Z,17.04
2022-09-11T23:45:33.015Z,16.99
2022-09-11T23:47:34.638Z,16.97
2022-09-11T23:49:36.631Z,16.93
2022-09-11T23:51:39.042Z,16.83
2022-09-11T23:53:45.026Z,16.84
2022-09-11T23:55:48.927Z,16.87
2022-09-11T23:57:53.680Z,16.82
2022-09-11T23:59:55.318Z,16.83
